createdAt,value
2024-01-18T00:00:35.628Z,12.50
2024-01-18T00:03:03.939Z,12.38
2024-01-18T00:05:30.880Z,12.10
2024-01-18T00:07:57.911Z,12.85
2024-01-18T00:10:28.402Z,12.95
2024-01-18T00:12:55.945Z,11.52
2024-01-18T00:15:23.424Z,12.43
2024-01-18T00:17:50.870Z,12.50
2024-01-18T00:20:18.072Z,13.05
2024-01-18T00:22:45.059Z,11.73
2024-01-18T00:25:12.112Z,11.07
2024-01-18T00:27:39.125Z,13.85
2024-01-18T00:30:06.706Z,13.10
2024-01-18T00:32:33.948Z,11.05
2024-01-18T00:35:01.069Z,11.00
2024-01-18T00:37:28.131Z,11.73
2024-01-18T00:39:55.121Z,11.65
2024-01-18T00:42:22.319Z,11.02
2024-01-18T00:44:49.412Z,11.55
2024-01-18T00:47:16.651Z,11.18
2024-01-18T00:49:44.994Z,10.93
2024-01-18T00:52:12.128Z,10.25
2024-01-18T00:54:39.142Z,11.05
2024-01-18T00:57:06.360Z,11.27
2024-01-18T00:59:33.698Z,11.27
2024-01-18T01:02:00.695Z,9.98
2024-01-18T01:04:27.584Z,10.40
2024-01-18T01:06:54.632Z,10.45
2024-01-18T01:09:21.665Z,11.48
2024-01-18T01:11:48.559Z,10.43
2024-01-18T01:14:15.618Z,11.70
2024-01-18T01:16:42.667Z,11.07
2024-01-18T01:19:09.663Z,10.15
2024-01-18T01:21:38.377Z,11.25
2024-01-18T01:24:05.449Z,11.25
2024-01-18T01:26:32.476Z,11.20
2024-01-18T01:28:59.483Z,12.52
2024-01-18T01:31:26.678Z,12.38
2024-01-18T01:33:53.761Z,10.93
2024-01-18T01:36:20.901Z,11.98
2024-01-18T01:38:47.973Z,11.60
2024-01-18T01:41:15.332Z,11.70
2024-01-18T01:44:01.719Z,12.38
2024-01-18T01:46:29.699Z,12.13
2024-01-18T01:49:02.509Z,11.30
2024-01-18T01:51:38.359Z,11.20
2024-01-18T01:54:06.381Z,11.45
2024-01-18T01:56:35.957Z,13.05
2024-01-18T01:59:05.000Z,11.18
2024-01-18T02:01:32.235Z,13.05
2024-01-18T02:03:59.526Z,12.63
2024-01-18T02:06:27.042Z,13.20
2024-01-18T02:08:54.157Z,12.27
2024-01-18T02:11:21.671Z,11.02
2024-01-18T02:13:50.111Z,12.80
2024-01-18T02:16:17.395Z,11.30
2024-01-18T02:18:44.401Z,12.38
2024-01-18T02:21:11.664Z,14.27
2024-01-18T02:23:40.175Z,12.23
2024-01-18T02:26:07.428Z,11.90
2024-01-18T02:28:34.349Z,13.27
2024-01-18T02:31:01.569Z,11.52
2024-01-18T02:33:28.760Z,12.70
2024-01-18T02:35:56.002Z,12.70
2024-01-18T02:38:23.656Z,11.30
2024-01-18T02:40:50.649Z,12.23
2024-01-18T02:43:17.632Z,12.40
2024-01-18T02:45:44.837Z,12.38
2024-01-18T02:48:11.992Z,14.23
2024-01-18T02:50:43.168Z,12.98
2024-01-18T02:55:36.914Z,9.73
2024-01-18T02:58:04.127Z,12.90
2024-01-18T03:00:31.149Z,12.88
2024-01-18T03:02:58.168Z,12.68
2024-01-18T03:05:25.203Z,14.48
2024-01-18T03:07:52.203Z,13.93
2024-01-18T03:10:19.188Z,14.13
2024-01-18T03:12:46.168Z,15.80
2024-01-18T03:15:13.491Z,13.55
2024-01-18T03:17:40.569Z,15.40
2024-01-18T03:20:08.694Z,14.27
2024-01-18T03:22:38.662Z,12.52
2024-01-18T03:25:06.239Z,13.75
2024-01-18T03:27:33.324Z,16.08
2024-01-18T03:30:00.552Z,17.20
2024-01-18T03:32:27.659Z,15.10
2024-01-18T03:34:54.745Z,15.80
2024-01-18T03:37:21.768Z,17.35
2024-01-18T03:39:48.780Z,15.82
2024-01-18T03:42:15.800Z,16.95
2024-01-18T03:44:42.756Z,16.98
2024-01-18T03:47:09.720Z,17.95
2024-01-18T03:49:36.871Z,16.38
2024-01-18T03:52:03.963Z,15.05
2024-01-18T03:54:31.005Z,17.58
2024-01-18T03:56:58.132Z,17.27
2024-01-18T03:59:25.408Z,16.00
2024-01-18T04:01:52.293Z,17.13
2024-01-18T04:04:19.378Z,17.38
2024-01-18T04:06:46.467Z,18.10
2024-01-18T04:09:13.531Z,15.57
2024-01-18T04:11:40.607Z,15.45
2024-01-18T04:14:07.628Z,16.27
2024-01-18T04:16:35.551Z,17.00
2024-01-18T04:19:02.704Z,14.70
2024-01-18T04:21:30.272Z,16.55
2024-01-18T04:23:57.549Z,14.35
2024-01-18T04:26:26.295Z,17.27
2024-01-18T04:28:53.765Z,15.07
2024-01-18T04:31:20.694Z,16.42
2024-01-18T04:33:48.484Z,15.07
2024-01-18T04:36:15.495Z,14.85
2024-01-18T04:38:42.913Z,16.92
2024-01-18T04:41:09.966Z,17.02
2024-01-18T04:43:36.959Z,16.15
2024-01-18T04:46:05.505Z,14.32
2024-01-18T04:48:33.078Z,14.70
2024-01-18T04:51:00.255Z,16.95
2024-01-18T04:53:27.278Z,13.43
2024-01-18T04:55:55.066Z,14.25
2024-01-18T04:58:22.791Z,13.63
2024-01-18T05:00:49.823Z,13.82
2024-01-18T05:03:17.083Z,14.70
2024-01-18T05:05:44.193Z,15.45
2024-01-18T05:08:11.166Z,14.38
2024-01-18T05:10:38.114Z,15.57
2024-01-18T05:13:05.353Z,15.88
2024-01-18T05:15:32.422Z,13.68
2024-01-18T05:18:02.114Z,18.05
2024-01-18T05:20:29.469Z,16.27
2024-01-18T05:22:56.485Z,17.27
2024-01-18T05:25:23.460Z,16.95
2024-01-18T05:27:50.654Z,15.82
2024-01-18T05:30:17.698Z,19.13
2024-01-18T05:32:45.030Z,18.08
2024-01-18T05:35:11.964Z,17.88
2024-01-18T05:37:38.850Z,18.08
2024-01-18T05:40:08.062Z,18.73
2024-01-18T05:42:35.025Z,19.65
2024-01-18T05:45:02.436Z,18.17
2024-01-18T05:47:29.675Z,20.63
2024-01-18T05:49:57.215Z,21.02
2024-01-18T05:52:24.220Z,19.60
2024-01-18T05:54:51.193Z,21.55
2024-01-18T05:57:18.064Z,20.25
2024-01-18T05:59:44.977Z,23.60
2024-01-18T06:02:11.967Z,22.27
2024-01-18T06:04:39.022Z,23.55
2024-01-18T06:07:06.164Z,24.40
2024-01-18T06:09:33.335Z,26.63
2024-01-18T06:12:00.409Z,27.90
2024-01-18T06:14:27.421Z,22.38
2024-01-18T06:16:54.563Z,25.77
2024-01-18T06:19:21.674Z,24.23
2024-01-18T06:21:48.782Z,28.98
2024-01-18T06:24:16.202Z,23.05
2024-01-18T06:26:43.256Z,24.83
2024-01-18T06:29:11.745Z,28.48
2024-01-18T06:31:39.053Z,34.83
2024-01-18T06:34:06.594Z,24.30
2024-01-18T06:36:33.699Z,21.77
2024-01-18T06:39:01.341Z,21.23
2024-01-18T06:41:28.377Z,20.40
2024-01-18T06:43:55.505Z,24.98
2024-01-18T06:46:23.886Z,21.05
2024-01-18T06:48:58.589Z,21.73
2024-01-18T06:51:25.824Z,21.20
2024-01-18T06:53:53.094Z,19.40
2024-01-18T06:56:20.016Z,22.83
2024-01-18T06:58:47.059Z,20.83
2024-01-18T07:01:14.545Z,15.27
2024-01-18T07:03:43.957Z,21.00
2024-01-18T07:06:11.349Z,18.17
2024-01-18T07:08:38.833Z,24.83
2024-01-18T07:11:06.253Z,20.63
2024-01-18T07:13:33.381Z,14.48
2024-01-18T07:16:00.687Z,12.52
2024-01-18T07:18:28.267Z,12.32
2024-01-18T07:20:55.474Z,14.15
2024-01-18T07:23:22.558Z,11.82
2024-01-18T07:25:49.655Z,13.00
2024-01-18T07:28:16.683Z,11.52
2024-01-18T07:30:43.960Z,14.13
2024-01-18T07:33:11.194Z,12.10
2024-01-18T07:35:38.418Z,12.23
2024-01-18T07:38:05.732Z,11.77
2024-01-18T07:40:32.716Z,12.00
2024-01-18T07:42:59.755Z,11.55
2024-01-18T07:45:27.072Z,13.05
2024-01-18T07:47:54.872Z,13.65
2024-01-18T07:50:33.573Z,12.10
2024-01-18T07:53:03.584Z,11.38
2024-01-18T07:55:30.861Z,12.82
2024-01-18T07:57:58.140Z,11.93
2024-01-18T08:00:25.926Z,11.13
2024-01-18T08:02:53.014Z,13.63
2024-01-18T08:05:20.063Z,11.63
2024-01-18T08:07:47.054Z,13.45
2024-01-18T08:10:14.104Z,13.32
2024-01-18T08:12:46.567Z,10.75
2024-01-18T08:15:14.476Z,9.68
2024-01-18T08:17:45.164Z,10.55
2024-01-18T08:20:16.023Z,9.93
2024-01-18T08:25:14.102Z,10.43
2024-01-18T08:27:43.415Z,11.38
2024-01-18T08:30:11.707Z,12.38
2024-01-18T08:32:38.999Z,11.55
2024-01-18T08:35:09.615Z,13.05
2024-01-18T08:37:37.524Z,12.20
2024-01-18T08:40:05.246Z,12.07
2024-01-18T08:42:32.372Z,12.88
2024-01-18T08:44:59.392Z,12.82
2024-01-18T08:47:28.115Z,14.15
2024-01-18T08:49:55.441Z,15.07
2024-01-18T08:52:24.077Z,14.75
2024-01-18T08:54:53.139Z,14.27
2024-01-18T08:57:20.904Z,13.63
2024-01-18T08:59:48.011Z,14.02
2024-01-18T09:02:23.047Z,13.70
2024-01-18T09:04:52.277Z,14.00
2024-01-18T09:07:19.975Z,13.77
2024-01-18T09:09:47.478Z,14.02
2024-01-18T09:12:14.990Z,17.60
2024-01-18T09:14:42.082Z,13.63
2024-01-18T09:17:11.491Z,15.90
2024-01-18T09:19:40.223Z,16.10
2024-01-18T09:22:07.401Z,15.68
2024-01-18T09:24:34.552Z,16.75
2024-01-18T09:27:01.572Z,16.55
2024-01-18T09:29:28.568Z,17.95
2024-01-18T09:31:58.377Z,18.27
2024-01-18T09:34:25.452Z,17.30
2024-01-18T09:36:52.746Z,17.08
2024-01-18T09:39:19.990Z,16.35
2024-01-18T09:41:54.528Z,16.98
2024-01-18T09:44:27.228Z,16.23
2024-01-18T09:46:55.780Z,14.93
2024-01-18T09:49:23.046Z,14.95
2024-01-18T09:51:51.922Z,15.18
2024-01-18T09:54:19.673Z,14.45
2024-01-18T09:56:47.744Z,13.38
2024-01-18T09:59:18.201Z,14.30
2024-01-18T10:01:46.412Z,15.00
2024-01-18T10:04:14.977Z,15.38
2024-01-18T10:06:42.984Z,14.75
2024-01-18T10:09:12.110Z,14.07
2024-01-18T10:11:39.125Z,12.40
2024-01-18T10:14:06.063Z,11.38
2024-01-18T10:16:37.362Z,10.93
2024-01-18T10:21:37.570Z,8.85
2024-01-18T10:24:05.186Z,10.27
2024-01-18T10:26:33.049Z,10.05
2024-01-18T10:29:02.001Z,9.18
2024-01-18T10:31:32.797Z,9.67
2024-01-18T10:34:00.179Z,9.75
2024-01-18T10:36:27.630Z,9.55
2024-01-18T10:38:55.093Z,9.63
2024-01-18T10:41:22.236Z,9.18
2024-01-18T10:43:49.896Z,8.68
2024-01-18T10:46:18.539Z,8.13
2024-01-18T10:48:47.739Z,8.80
2024-01-18T10:51:15.323Z,8.48
2024-01-18T10:53:44.889Z,8.90
2024-01-18T10:56:13.770Z,8.55
2024-01-18T10:58:42.624Z,8.75
2024-01-18T11:01:09.853Z,8.98
2024-01-18T11:03:38.250Z,9.07
2024-01-18T11:06:11.348Z,8.77
2024-01-18T11:08:41.534Z,8.07
2024-01-18T11:11:09.424Z,18.30
2024-01-18T11:13:36.927Z,8.32
2024-01-18T11:16:05.502Z,17.20
2024-01-18T11:18:35.754Z,8.27
2024-01-18T11:21:07.990Z,8.10
2024-01-18T11:23:37.007Z,16.25
2024-01-18T11:26:06.163Z,7.63
2024-01-18T11:28:34.190Z,15.52
2024-01-18T11:31:01.968Z,14.18
2024-01-18T11:33:29.796Z,15.38
2024-01-18T11:36:01.738Z,16.08
2024-01-18T11:38:31.138Z,13.70
2024-01-18T11:40:59.020Z,14.43
2024-01-18T11:43:46.265Z,14.98
2024-01-18T11:46:15.511Z,13.77
2024-01-18T11:48:44.174Z,14.05
2024-01-18T11:51:11.465Z,14.50
2024-01-18T11:53:39.402Z,14.85
2024-01-18T11:56:08.461Z,15.00
2024-01-18T11:58:35.506Z,15.55
2024-01-18T12:01:02.716Z,15.02
2024-01-18T12:03:30.032Z,15.30
2024-01-18T12:05:57.051Z,14.57
2024-01-18T12:08:24.256Z,14.65
2024-01-18T12:10:51.501Z,14.32
2024-01-18T12:13:19.257Z,14.40
2024-01-18T12:15:47.386Z,14.77
2024-01-18T12:18:14.614Z,14.77
2024-01-18T12:20:43.273Z,14.63
2024-01-18T12:23:17.283Z,13.30
2024-01-18T12:25:45.642Z,13.98
2024-01-18T12:28:12.723Z,13.63
2024-01-18T12:30:44.814Z,14.20
2024-01-18T12:33:14.088Z,13.95
2024-01-18T12:35:41.176Z,13.63
2024-01-18T12:38:08.527Z,13.18
2024-01-18T12:40:35.886Z,13.82
2024-01-18T12:43:04.361Z,14.82
2024-01-18T12:45:34.873Z,13.75
2024-01-18T12:48:03.916Z,12.37
2024-01-18T12:50:30.933Z,12.40
2024-01-18T12:52:59.548Z,13.38
2024-01-18T12:55:28.400Z,11.73
2024-01-18T12:57:59.497Z,12.50
2024-01-18T13:00:26.599Z,13.07
2024-01-18T13:02:53.859Z,12.82
2024-01-18T13:05:20.861Z,13.90
2024-01-18T13:07:50.007Z,13.23
2024-01-18T13:10:17.051Z,13.23
2024-01-18T13:12:46.357Z,12.68
2024-01-18T13:15:13.412Z,12.70
2024-01-18T13:17:42.688Z,13.02
2024-01-18T13:20:12.631Z,9.57
2024-01-18T13:22:40.004Z,9.00
2024-01-18T13:25:07.233Z,8.77
2024-01-18T13:27:34.360Z,8.32
2024-01-18T13:30:01.510Z,7.90
2024-01-18T13:32:28.694Z,8.82
2024-01-18T13:34:55.826Z,7.70
2024-01-18T13:37:30.557Z,8.38
2024-01-18T13:40:01.812Z,8.50
2024-01-18T13:42:28.958Z,9.10
2024-01-18T13:44:56.071Z,10.15
2024-01-18T13:47:23.145Z,8.48
2024-01-18T13:49:51.887Z,9.30
2024-01-18T13:52:21.458Z,9.70
2024-01-18T13:54:48.627Z,11.02
2024-01-18T13:57:15.640Z,9.63
2024-01-18T13:59:42.626Z,10.52
2024-01-18T14:02:09.654Z,10.18
2024-01-18T14:04:37.070Z,10.70
2024-01-18T14:07:04.825Z,10.63
2024-01-18T14:09:34.390Z,10.50
2024-01-18T14:12:01.840Z,9.63
2024-01-18T14:14:28.741Z,9.45
2024-01-18T14:16:58.763Z,10.90
2024-01-18T14:19:25.913Z,10.98
2024-01-18T14:21:53.073Z,21.35
2024-01-18T14:24:20.065Z,24.67
2024-01-18T14:26:47.733Z,13.30
2024-01-18T14:29:14.766Z,9.90
2024-01-18T14:31:42.085Z,9.60
2024-01-18T14:34:09.169Z,10.70
2024-01-18T14:36:36.305Z,11.00
2024-01-18T14:39:05.308Z,9.45
2024-01-18T14:41:33.220Z,10.68
2024-01-18T14:44:00.183Z,12.90
2024-01-18T14:46:27.162Z,13.05
2024-01-18T14:48:54.291Z,11.98
2024-01-18T14:51:21.375Z,10.80
2024-01-18T14:53:48.507Z,10.50
2024-01-18T14:56:15.354Z,12.05
2024-01-18T14:58:44.565Z,11.65
2024-01-18T15:01:11.826Z,12.23
2024-01-18T15:03:39.010Z,13.55
2024-01-18T15:06:08.203Z,12.20
2024-01-18T15:08:35.183Z,11.18
2024-01-18T15:11:02.342Z,12.73
2024-01-18T15:13:29.351Z,12.70
2024-01-18T15:15:56.523Z,11.93
2024-01-18T15:18:23.636Z,11.68
2024-01-18T15:20:50.779Z,11.90
2024-01-18T15:23:17.839Z,12.55
2024-01-18T15:25:44.834Z,12.18
2024-01-18T15:28:12.695Z,11.30
2024-01-18T15:30:39.774Z,11.18
2024-01-18T15:33:06.854Z,11.45
2024-01-18T15:35:33.899Z,10.60
2024-01-18T15:38:00.847Z,11.38
2024-01-18T15:40:27.680Z,10.75
2024-01-18T15:42:54.843Z,11.85
2024-01-18T15:45:22.150Z,12.02
2024-01-18T15:47:49.306Z,11.18
2024-01-18T15:50:16.377Z,13.63
2024-01-18T15:52:45.265Z,12.43
2024-01-18T15:55:12.673Z,10.40
2024-01-18T15:57:39.814Z,11.88
2024-01-18T16:00:09.561Z,11.93
2024-01-18T16:02:36.836Z,12.27
2024-01-18T16:05:07.132Z,11.65
2024-01-18T16:07:35.527Z,11.52
2024-01-18T16:10:05.280Z,10.93
2024-01-18T16:12:32.548Z,11.55
2024-01-18T16:14:59.809Z,11.55
2024-01-18T16:17:26.816Z,10.90
2024-01-18T16:19:53.868Z,11.68
2024-01-18T16:22:20.903Z,11.45
2024-01-18T16:24:47.833Z,12.75
2024-01-18T16:27:14.857Z,12.05
2024-01-18T16:29:54.255Z,11.15
2024-01-18T16:32:28.046Z,12.77
2024-01-18T16:34:55.224Z,12.13
2024-01-18T16:37:22.272Z,13.07
2024-01-18T16:39:50.368Z,16.25
2024-01-18T16:42:17.472Z,6.18
2024-01-18T16:44:44.446Z,14.05
2024-01-18T16:47:11.640Z,12.10
2024-01-18T16:49:38.710Z,5.43
2024-01-18T16:52:05.920Z,12.75
2024-01-18T16:54:32.982Z,4.35
2024-01-18T16:56:59.985Z,13.07
2024-01-18T16:59:26.973Z,3.72
2024-01-18T17:01:54.018Z,4.18
2024-01-18T17:04:21.033Z,4.15
2024-01-18T17:06:48.131Z,13.90
2024-01-18T17:09:15.074Z,5.70
2024-01-18T17:11:42.151Z,13.38
2024-01-18T17:14:09.192Z,4.50
2024-01-18T17:16:36.188Z,4.20
2024-01-18T17:19:04.037Z,11.38
2024-01-18T17:21:31.272Z,11.88
2024-01-18T17:23:58.206Z,3.83
2024-01-18T17:26:26.884Z,3.72
2024-01-18T17:28:54.973Z,3.97
2024-01-18T17:31:23.035Z,4.53
2024-01-18T17:33:50.762Z,4.47
2024-01-18T17:36:17.732Z,4.32
2024-01-18T17:38:44.976Z,4.05
2024-01-18T17:41:12.077Z,4.70
2024-01-18T17:43:38.965Z,3.95
2024-01-18T17:46:07.385Z,4.25
2024-01-18T17:48:37.337Z,4.88
2024-01-18T17:51:06.662Z,4.43
2024-01-18T17:53:34.072Z,4.75
2024-01-18T17:56:04.518Z,4.50
2024-01-18T17:58:33.145Z,4.15
2024-01-18T18:01:00.182Z,5.00
2024-01-18T18:03:27.765Z,4.05
2024-01-18T18:05:54.945Z,4.00
2024-01-18T18:08:22.199Z,4.35
2024-01-18T18:10:49.302Z,4.78
2024-01-18T18:13:16.269Z,4.15
2024-01-18T18:15:47.592Z,4.40
2024-01-18T18:18:18.142Z,4.95
2024-01-18T18:20:45.216Z,4.15
2024-01-18T18:23:12.357Z,4.90
2024-01-18T18:25:39.374Z,5.70
2024-01-18T18:28:06.685Z,4.53
2024-01-18T18:30:36.818Z,4.93
2024-01-18T18:33:06.884Z,4.22
2024-01-18T18:35:34.049Z,4.55
2024-01-18T18:38:01.109Z,4.22
2024-01-18T18:40:30.597Z,4.43
2024-01-18T18:42:57.570Z,4.50
2024-01-18T18:45:24.581Z,4.70
2024-01-18T18:47:52.983Z,4.43
2024-01-18T18:50:20.021Z,5.55
2024-01-18T18:52:47.633Z,5.13
2024-01-18T18:55:14.757Z,4.75
2024-01-18T18:57:41.791Z,4.70
2024-01-18T19:00:09.270Z,4.80
2024-01-18T19:02:36.398Z,4.45
2024-01-18T19:05:05.134Z,5.63
2024-01-18T19:07:32.132Z,3.72
2024-01-18T19:09:59.075Z,5.13
2024-01-18T19:12:26.382Z,6.18
2024-01-18T19:14:53.835Z,5.68
2024-01-18T19:17:21.018Z,5.20
2024-01-18T19:19:47.982Z,5.50
2024-01-18T19:22:15.042Z,5.72
2024-01-18T19:24:42.064Z,5.30
2024-01-18T19:27:09.418Z,7.22
2024-01-18T19:29:36.660Z,7.43
2024-01-18T19:32:05.116Z,6.80
2024-01-18T19:34:32.120Z,6.63
2024-01-18T19:36:59.167Z,7.55
2024-01-18T19:39:32.236Z,7.57
2024-01-18T19:42:01.947Z,7.65
2024-01-18T19:44:28.968Z,8.35
2024-01-18T19:46:55.946Z,6.72
2024-01-18T19:49:24.965Z,6.97
2024-01-18T19:51:51.991Z,6.82
2024-01-18T19:54:18.975Z,5.93
2024-01-18T19:56:46.156Z,6.60
2024-01-18T19:59:13.196Z,7.00
2024-01-18T20:01:40.144Z,6.22
2024-01-18T20:04:07.156Z,7.63
2024-01-18T20:06:34.318Z,9.23
2024-01-18T20:09:01.318Z,11.27
2024-01-18T20:11:28.793Z,7.57
2024-01-18T20:13:55.912Z,7.38
2024-01-18T20:16:22.977Z,7.13
2024-01-18T20:18:52.255Z,7.03
2024-01-18T20:21:19.769Z,6.60
2024-01-18T20:23:47.026Z,6.93
2024-01-18T20:26:16.111Z,8.02
2024-01-18T20:28:43.893Z,7.63
2024-01-18T20:31:11.346Z,7.18
2024-01-18T20:33:41.350Z,7.05
2024-01-18T20:36:08.537Z,6.75
2024-01-18T20:38:35.568Z,7.80
2024-01-18T20:41:03.120Z,8.20
2024-01-18T20:43:30.113Z,7.00
2024-01-18T20:45:57.311Z,8.05
2024-01-18T20:48:24.516Z,8.65
2024-01-18T20:50:51.715Z,9.50
2024-01-18T20:53:18.799Z,9.02
2024-01-18T20:55:45.797Z,10.35
2024-01-18T20:58:12.898Z,9.43
2024-01-18T21:00:40.772Z,8.73
2024-01-18T21:03:08.923Z,9.52
2024-01-18T21:05:35.922Z,10.38
2024-01-18T21:08:02.946Z,10.07
2024-01-18T21:10:30.042Z,14.75
2024-01-18T21:12:57.137Z,20.00
2024-01-18T21:15:24.227Z,25.23
2024-01-18T21:17:51.326Z,49.60
2024-01-18T21:20:18.346Z,16.17
2024-01-18T21:22:45.433Z,10.00
2024-01-18T21:25:12.409Z,12.55
2024-01-18T21:27:39.360Z,15.73
2024-01-18T21:30:07.086Z,15.55
2024-01-18T21:32:35.064Z,13.27
2024-01-18T21:35:02.135Z,20.65
2024-01-18T21:37:29.242Z,27.13
2024-01-18T21:39:56.229Z,29.73
2024-01-18T21:42:23.373Z,29.00
2024-01-18T21:44:50.666Z,35.53
2024-01-18T21:47:18.004Z,38.47
2024-01-18T21:49:45.501Z,25.60
2024-01-18T21:52:13.263Z,23.17
2024-01-18T21:54:40.812Z,24.73
2024-01-18T21:57:08.035Z,24.60
2024-01-18T21:59:40.057Z,23.30
2024-01-18T22:02:12.716Z,26.15
2024-01-18T22:04:40.696Z,22.77
2024-01-18T22:07:08.520Z,21.48
2024-01-18T22:09:41.826Z,16.58
2024-01-18T22:12:10.598Z,13.35
2024-01-18T22:14:37.658Z,13.77
2024-01-18T22:17:05.045Z,11.27
2024-01-18T22:19:43.130Z,12.50
2024-01-18T22:22:19.410Z,11.65
2024-01-18T22:24:46.698Z,11.68
2024-01-18T22:27:15.132Z,12.02
2024-01-18T22:29:43.106Z,11.25
2024-01-18T22:32:13.872Z,12.02
2024-01-18T22:34:42.207Z,11.18
2024-01-18T22:37:09.153Z,10.85
2024-01-18T22:39:36.096Z,11.25
2024-01-18T22:42:03.255Z,11.68
2024-01-18T22:44:30.219Z,11.82
2024-01-18T22:46:57.286Z,12.13
2024-01-18T22:49:24.404Z,11.75
2024-01-18T22:51:51.540Z,11.63
2024-01-18T22:54:18.532Z,10.93
2024-01-18T22:56:46.505Z,11.30
2024-01-18T22:59:13.684Z,12.40
2024-01-18T23:01:40.714Z,12.38
2024-01-18T23:04:07.821Z,11.43
2024-01-18T23:06:35.858Z,12.88
2024-01-18T23:09:02.919Z,12.30
2024-01-18T23:11:29.929Z,11.80
2024-01-18T23:13:58.848Z,12.88
2024-01-18T23:16:27.072Z,12.80
2024-01-18T23:18:54.614Z,12.65
2024-01-18T23:21:21.836Z,12.52
2024-01-18T23:23:51.194Z,11.43
2024-01-18T23:26:19.018Z,12.98
2024-01-18T23:28:46.121Z,12.88
2024-01-18T23:31:13.142Z,12.13
2024-01-18T23:33:40.266Z,11.77
2024-01-18T23:36:07.576Z,12.45
2024-01-18T23:38:34.590Z,11.93
2024-01-18T23:41:01.620Z,11.48
2024-01-18T23:43:28.634Z,12.00
2024-01-18T23:45:55.655Z,11.65
2024-01-18T23:48:22.756Z,12.40
2024-01-18T23:50:49.966Z,12.45
2024-01-18T23:53:17.096Z,11.57
2024-01-18T23:55:44.171Z,12.10
2024-01-18T23:58:11.173Z,12.55
